createdAt,value
2023-06-13T00:00:25.856Z,100812.03
2023-06-13T00:05:28.278Z,100804.47
2023-06-13T00:10:31.539Z,100813.41
2023-06-13T00:15:39.532Z,100814.72
2023-06-13T00:20:44.463Z,100810.97
2023-06-13T00:25:55.002Z,100816.91
2023-06-13T00:31:10.022Z,100805.00
2023-06-13T00:36:14.084Z,100797.72
2023-06-13T00:41:16.896Z,100792.56
2023-06-13T00:46:24.261Z,100793.84
2023-06-13T00:51:30.919Z,100790.34
2023-06-13T00:56:32.832Z,100784.94
2023-06-13T01:01:34.876Z,100782.41
2023-06-13T01:06:37.057Z,100790.75
2023-06-13T01:12:03.560Z,100776.91
2023-06-13T01:17:28.505Z,100773.31
2023-06-13T01:22:47.353Z,100781.88
2023-06-13T01:27:50.448Z,100775.16
2023-06-13T01:33:03.696Z,100771.78
2023-06-13T01:38:06.198Z,100773.69
2023-06-13T01:43:11.577Z,100774.19
2023-06-13T01:48:49.379Z,100773.69
2023-06-13T01:54:07.046Z,100768.22
2023-06-13T01:59:18.849Z,100764.16
2023-06-13T02:04:31.435Z,100760.88
2023-06-13T02:09:32.991Z,100757.63
2023-06-13T02:14:36.212Z,100751.91
2023-06-13T02:19:38.269Z,100761.06
2023-06-13T02:24:46.445Z,100753.59
2023-06-13T02:29:56.025Z,100757.91
2023-06-13T02:35:09.600Z,100763.03
2023-06-13T02:40:11.902Z,100758.44
2023-06-13T02:45:16.205Z,100756.22
2023-06-13T02:50:19.175Z,100758.41
2023-06-13T02:55:26.643Z,100753.53
2023-06-13T03:00:31.495Z,100753.44
2023-06-13T03:05:33.119Z,100749.56
2023-06-13T03:10:41.214Z,100763.19
2023-06-13T03:15:46.177Z,100766.41
2023-06-13T03:20:55.957Z,100769.19
2023-06-13T03:26:09.861Z,100767.16
2023-06-13T03:31:22.353Z,100774.19
2023-06-13T03:36:45.163Z,100775.03
2023-06-13T03:41:50.315Z,100770.53
2023-06-13T03:46:53.529Z,100777.34
2023-06-13T03:52:08.120Z,100777.88
2023-06-13T03:57:30.772Z,100771.13
2023-06-13T04:08:30.992Z,100779.56
2023-06-13T04:13:33.099Z,100781.50
2023-06-13T04:18:34.909Z,100786.91
2023-06-13T04:23:36.802Z,100789.63
2023-06-13T04:28:40.128Z,100797.78
2023-06-13T04:33:50.651Z,100805.75
2023-06-13T04:39:10.165Z,100809.25
2023-06-13T04:44:23.503Z,100798.63
2023-06-13T04:49:25.790Z,100804.91
2023-06-13T04:54:27.489Z,100810.34
2023-06-13T04:59:40.835Z,100813.13
2023-06-13T05:04:47.188Z,100824.38
2023-06-13T05:09:49.199Z,100827.09
2023-06-13T05:14:51.280Z,100820.22
2023-06-13T05:19:56.283Z,100822.19
2023-06-13T05:24:58.189Z,100834.19
2023-06-13T05:30:00.730Z,100832.03
2023-06-13T05:46:15.500Z,100838.03
2023-06-13T05:51:23.426Z,100838.03
2023-06-13T05:56:36.928Z,100841.28
2023-06-13T06:01:49.226Z,100841.84
2023-06-13T06:06:50.791Z,100841.28
2023-06-13T06:11:52.915Z,100840.72
2023-06-13T06:16:54.460Z,100844.94
2023-06-13T06:21:56.028Z,100855.59
2023-06-13T06:26:58.742Z,100850.88
2023-06-13T06:32:00.366Z,100847.28
2023-06-13T06:37:03.028Z,100845.31
2023-06-13T06:42:04.816Z,100858.50
2023-06-13T06:47:06.901Z,100853.09
2023-06-13T06:52:08.671Z,100859.94
2023-06-13T06:57:12.820Z,100859.34
2023-06-13T07:02:14.981Z,100863.38
2023-06-13T07:07:18.762Z,100860.94
2023-06-13T07:12:20.356Z,100876.19
2023-06-13T07:17:31.673Z,100873.16
2023-06-13T07:28:15.974Z,100870.66
2023-06-13T07:38:37.054Z,100870.97
2023-06-13T07:43:51.943Z,100880.75
2023-06-13T07:48:57.106Z,100873.53
2023-06-13T07:54:04.518Z,100890.47
2023-06-13T07:59:29.334Z,100883.09
2023-06-13T08:04:53.844Z,100887.56
2023-06-13T08:10:07.987Z,100893.97
2023-06-13T08:15:17.922Z,100886.53
2023-06-13T08:20:34.983Z,100891.19
2023-06-13T08:25:46.453Z,100887.16
2023-06-13T08:36:32.478Z,100880.09
2023-06-13T08:42:07.716Z,100874.59
2023-06-13T08:47:37.649Z,100874.59
2023-06-13T08:53:29.529Z,100872.16
2023-06-13T08:58:43.397Z,100869.16
2023-06-13T09:04:04.538Z,100870.53
2023-06-13T09:09:27.925Z,100861.19
2023-06-13T09:14:41.123Z,100851.72
2023-06-13T09:19:47.399Z,100858.69
2023-06-13T09:25:00.870Z,100858.06
2023-06-13T09:30:08.769Z,100848.59
2023-06-13T09:47:03.735Z,100833.66
2023-06-13T09:52:39.720Z,100827.44
2023-06-13T10:10:53.240Z,100819.28
2023-06-13T10:16:05.594Z,100810.75
2023-06-13T10:22:08.426Z,100811.59
2023-06-13T10:27:50.496Z,100804.94
2023-06-13T10:33:43.484Z,100809.00
2023-06-13T10:52:11.047Z,100801.28
2023-06-13T11:03:46.209Z,100792.28
2023-06-13T11:09:17.495Z,100788.66
2023-06-13T11:14:26.925Z,100776.66
2023-06-13T11:19:29.502Z,100763.22
2023-06-13T11:24:34.224Z,100753.56
2023-06-13T11:29:39.575Z,100754.88
2023-06-13T11:34:48.774Z,100760.97
2023-06-13T11:40:17.445Z,100770.22
2023-06-13T11:45:23.616Z,100741.88
2023-06-13T11:50:26.762Z,100737.22
2023-06-13T11:55:35.087Z,100755.03
2023-06-13T12:00:52.929Z,100743.03
2023-06-13T12:05:57.708Z,100749.63
2023-06-13T12:10:59.695Z,100745.59
2023-06-13T12:16:02.569Z,100738.41
2023-06-13T12:21:14.797Z,100730.13
2023-06-13T12:26:19.395Z,100722.03
2023-06-13T12:36:56.570Z,100711.97
2023-06-13T12:42:19.138Z,100703.22
2023-06-13T12:47:28.551Z,100704.25
2023-06-13T12:53:24.837Z,100690.59
2023-06-13T12:59:01.145Z,100693.88
2023-06-13T13:04:49.396Z,100691.00
2023-06-13T13:09:53.724Z,100678.66
2023-06-13T13:26:01.002Z,100672.34
2023-06-13T13:31:53.009Z,100666.19
2023-06-13T13:54:49.823Z,100647.56
2023-06-13T14:05:17.891Z,100639.78
2023-06-13T14:10:58.334Z,100630.56
2023-06-13T14:21:44.052Z,100617.06
2023-06-13T14:27:32.952Z,100622.13
2023-06-13T14:43:43.021Z,100600.00
2023-06-13T14:48:44.868Z,100602.34
2023-06-13T14:54:04.930Z,100604.56
2023-06-13T14:59:17.088Z,100602.03
2023-06-13T15:04:37.173Z,100601.31
2023-06-13T15:09:39.141Z,100596.72
2023-06-13T15:14:42.144Z,100591.22
2023-06-13T15:19:52.796Z,100593.16
2023-06-13T15:24:54.809Z,100587.06
2023-06-13T15:29:56.494Z,100578.72
2023-06-13T15:35:16.803Z,100581.78
2023-06-13T15:40:22.362Z,100577.09
2023-06-13T15:45:24.283Z,100565.94
2023-06-13T15:51:01.528Z,100573.56
2023-06-13T15:56:14.886Z,100571.00
2023-06-13T16:01:59.824Z,100569.00
2023-06-13T16:07:03.894Z,100577.41
2023-06-13T16:41:20.337Z,100552.66
2023-06-13T16:58:20.810Z,100551.44
2023-06-13T17:14:08.661Z,100540.44
2023-06-13T17:19:10.677Z,100550.25
2023-06-13T17:24:12.577Z,100554.63
2023-06-13T17:29:18.566Z,100548.22
2023-06-13T17:34:22.944Z,100558.97
2023-06-13T17:45:09.850Z,100567.78
2023-06-13T17:50:11.432Z,100567.00
2023-06-13T17:55:35.059Z,100573.19
2023-06-13T18:18:09.958Z,100581.47
2023-06-13T18:23:15.237Z,100586.34
2023-06-13T18:28:17.120Z,100582.53
2023-06-13T18:33:19.040Z,100591.72
2023-06-13T18:38:24.001Z,100590.56
2023-06-13T18:43:29.325Z,100592.31
2023-06-13T18:53:55.063Z,100600.13
2023-06-13T18:58:57.163Z,100601.13
2023-06-13T19:04:02.343Z,100605.91
2023-06-13T19:09:04.028Z,100602.00
2023-06-13T19:14:05.520Z,100600.19
2023-06-13T19:19:11.570Z,100608.38
2023-06-13T19:24:26.593Z,100627.59
2023-06-13T19:35:43.714Z,100631.91
2023-06-13T19:41:54.705Z,100638.13
2023-06-13T19:46:47.944Z,100643.94
2023-06-13T19:52:01.566Z,100643.78
2023-06-13T20:14:04.458Z,100675.38
2023-06-13T20:37:02.779Z,100704.34
2023-06-13T21:31:21.337Z,100737.44
2023-06-13T21:49:02.410Z,100741.00
2023-06-13T22:39:51.294Z,100749.63
2023-06-13T22:50:09.875Z,100748.13
2023-06-13T22:55:11.871Z,100749.53
2023-06-13T23:00:30.184Z,100751.28
2023-06-13T23:12:19.798Z,100746.16
2023-06-13T23:23:13.888Z,100744.94
2023-06-13T23:28:37.267Z,100743.84
2023-06-13T23:40:24.543Z,100751.69
